Time;durP1;ratioP1;P1;durP2;ratioP2;P2;SDS_P1;SDS_P2;PMS_P1;PMS_P2;Temp;Humidity;BMP_temperature;BMP_pressure;BME280_temperature;BME280_humidity;BME280_pressure;Samples;Min_cycle;Max_cycle;Signal;HPM_P1;HPM_P2
2021/03/18 00:00:43;;;;;;;27.73;16.67;;;4.00;90.50;;;;;;5010839;28;20068;-75
2021/03/18 00:03:12;;;;;;;26.47;14.73;;;4.00;90.60;;;;;;5012207;28;20034;-75
2021/03/18 00:05:38;;;;;;;21.07;12.43;;;4.00;90.60;;;;;;5013963;28;20033;-75
2021/03/18 00:08:04;;;;;;;23.13;12.77;;;4.00;90.50;;;;;;4996096;28;20604;-75
2021/03/18 00:10:30;;;;;;;20.03;12.60;;;3.90;90.50;;;;;;5014137;28;20041;-75
2021/03/18 00:12:55;;;;;;;17.07;9.80;;;4.00;90.60;;;;;;5011736;28;20030;-75
2021/03/18 00:15:22;;;;;;;21.97;11.40;;;3.90;90.50;;;;;;5013521;28;20494;-75
2021/03/18 00:17:48;;;;;;;21.70;12.03;;;3.90;90.50;;;;;;5010892;28;20037;-75
2021/03/18 00:20:15;;;;;;;21.93;12.23;;;3.90;90.50;;;;;;4997078;28;20077;-75
2021/03/18 00:22:41;;;;;;;18.93;11.60;;;3.90;90.60;;;;;;5011589;28;20030;-73
2021/03/18 00:25:10;;;;;;;19.57;11.20;;;3.80;90.60;;;;;;5012700;28;20474;-74
2021/03/18 00:27:36;;;;;;;27.10;12.50;;;3.90;90.60;;;;;;5013571;28;20030;-74
2021/03/18 00:30:03;;;;;;;18.27;9.83;;;3.90;90.60;;;;;;4996241;28;20085;-73
2021/03/18 00:32:28;;;;;;;18.13;9.83;;;3.90;90.60;;;;;;5013300;28;20026;-73
2021/03/18 00:34:54;;;;;;;16.70;9.67;;;3.90;90.50;;;;;;5011953;28;20442;-73
2021/03/18 00:37:20;;;;;;;19.67;10.07;;;3.90;90.70;;;;;;5012468;28;20040;-75
2021/03/18 00:39:45;;;;;;;15.17;8.67;;;3.80;90.50;;;;;;4996588;28;20053;-76
2021/03/18 00:42:11;;;;;;;13.77;6.97;;;3.80;90.50;;;;;;5011496;28;20021;-73
2021/03/18 00:44:37;;;;;;;16.13;8.80;;;3.80;90.40;;;;;;5012811;28;20393;-74
2021/03/18 00:47:02;;;;;;;16.63;9.50;;;3.80;90.50;;;;;;5011295;28;20129;-73
2021/03/18 00:49:28;;;;;;;10.23;6.47;;;3.70;90.50;;;;;;5011863;28;20105;-74
2021/03/18 00:51:54;;;;;;;11.73;6.77;;;3.70;90.50;;;;;;4994442;28;20141;-73
2021/03/18 00:54:19;;;;;;;13.20;7.37;;;3.70;90.40;;;;;;5011398;28;20044;-73
2021/03/18 00:56:45;;;;;;;9.63;6.10;;;3.60;90.40;;;;;;5012001;28;20402;-73
2021/03/18 00:59:11;;;;;;;15.83;9.97;;;3.50;90.30;;;;;;5011043;28;20109;-73
2021/03/18 01:01:36;;;;;;;17.60;8.63;;;3.50;90.50;;;;;;5012718;28;20117;-73
2021/03/18 01:04:04;;;;;;;11.10;6.13;;;3.40;90.50;;;;;;4994425;28;20045;-73
2021/03/18 01:06:31;;;;;;;13.13;6.50;;;3.50;90.50;;;;;;5010508;28;20104;-73
2021/03/18 01:08:59;;;;;;;11.37;7.40;;;3.40;90.40;;;;;;5011010;28;20037;-73
2021/03/18 01:11:27;;;;;;;9.97;6.47;;;3.50;90.60;;;;;;5012057;28;20021;-73
2021/03/18 01:13:56;;;;;;;17.93;7.87;;;3.50;90.50;;;;;;5010619;28;20143;-76
2021/03/18 01:16:25;;;;;;;10.93;6.90;;;3.50;90.50;;;;;;4995355;28;20042;-74
2021/03/18 01:18:57;;;;;;;15.67;7.43;;;3.50;90.60;;;;;;5012577;28;20029;-77
2021/03/18 01:21:30;;;;;;;11.63;6.32;;;3.50;90.60;;;;;;5010712;28;20038;-74
2021/03/18 01:23:55;;;;;;;19.05;8.02;;;3.60;90.60;;;;;;5010414;28;20025;-77
2021/03/18 01:26:21;;;;;;;10.80;6.20;;;3.60;90.70;;;;;;5012171;28;20038;-73
2021/03/18 01:28:47;;;;;;;16.27;5.70;;;3.60;90.80;;;;;;5011543;28;20040;-73
2021/03/18 01:31:13;;;;;;;10.97;6.43;;;3.60;90.60;;;;;;4994455;28;20030;-74
2021/03/18 01:33:40;;;;;;;10.30;5.80;;;3.60;90.60;;;;;;5011501;28;20113;-73
2021/03/18 01:36:08;;;;;;;9.43;4.77;;;3.60;90.50;;;;;;5009414;28;20038;-73
2021/03/18 01:38:35;;;;;;;11.13;6.97;;;3.50;90.50;;;;;;5012119;28;20037;-74
2021/03/18 01:41:02;;;;;;;11.50;6.20;;;3.50;90.60;;;;;;5010413;28;20028;-73
2021/03/18 01:43:28;;;;;;;11.33;5.60;;;3.60;90.80;;;;;;5011024;28;20037;-73
2021/03/18 01:45:54;;;;;;;11.33;5.60;;;3.60;90.60;;;;;;5011818;28;20108;-73
2021/03/18 01:48:20;;;;;;;9.40;4.90;;;3.60;90.50;;;;;;4993015;28;20125;-73
2021/03/18 01:50:46;;;;;;;8.47;5.40;;;3.60;90.50;;;;;;5012558;28;20470;-72
2021/03/18 01:53:12;;;;;;;9.67;4.47;;;3.50;90.40;;;;;;5001930;28;20036;-73
2021/03/18 01:55:40;;;;;;;18.40;5.77;;;3.50;90.50;;;;;;5011580;28;20048;-73
2021/03/18 01:58:08;;;;;;;15.17;5.50;;;3.50;90.40;;;;;;4992885;28;20526;-73
2021/03/18 02:00:36;;;;;;;9.90;5.40;;;3.40;90.30;;;;;;5010827;28;20030;-73
2021/03/18 02:03:02;;;;;;;9.57;4.80;;;3.40;90.50;;;;;;5009167;28;20466;-73
2021/03/18 02:05:28;;;;;;;10.23;5.70;;;3.50;90.60;;;;;;4994160;28;20057;-75
2021/03/18 02:07:56;;;;;;;9.07;5.27;;;3.50;90.70;;;;;;5011638;28;20022;-72
2021/03/18 02:10:32;;;;;;;11.57;5.17;;;3.50;90.50;;;;;;5008957;28;20096;-73
2021/03/18 02:12:58;;;;;;;10.77;4.67;;;3.50;90.50;;;;;;5010192;28;20544;-73
2021/03/18 02:15:31;;;;;;;13.97;5.17;;;3.50;90.40;;;;;;5009556;28;20056;-72
2021/03/18 02:18:12;;;;;;;11.75;5.20;;;3.50;90.50;;;;;;5011418;28;20060;-73
2021/03/18 02:21:16;;;;;;;12.30;5.00;;;3.60;90.50;;;;;;5019434;28;20485;-73
2021/03/18 02:24:13;;;;;;;10.93;4.10;;;3.60;90.60;;;;;;5027098;28;20048;-74
2021/03/18 02:26:57;;;;;;;9.23;4.77;;;3.60;90.40;;;;;;5013735;28;20037;-74
2021/03/18 02:29:32;;;;;;;13.27;5.00;;;3.60;90.40;;;;;;5029844;28;20028;-74
2021/03/18 02:32:34;;;;;;;12.83;4.93;;;3.60;90.40;;;;;;5029189;28;20024;-75
2021/03/18 02:35:24;;;;;;;9.03;4.07;;;3.60;90.50;;;;;;5011301;28;20056;-75
2021/03/18 02:38:17;;;;;;;11.77;4.30;;;3.60;90.50;;;;;;5031839;28;20042;-74
2021/03/18 02:40:54;;;;;;;11.82;4.57;;;3.60;90.40;;;;;;5009003;28;20061;-73
2021/03/18 02:43:21;;;;;;;7.03;3.80;;;3.60;90.50;;;;;;5011287;28;20032;-74
2021/03/18 02:45:54;;;;;;;10.83;4.70;;;3.70;90.60;;;;;;4981234;28;20034;-74
2021/03/18 02:48:27;;;;;;;12.07;3.87;;;3.70;90.40;;;;;;5025612;28;20037;-74
2021/03/18 02:50:54;;;;;;;9.65;4.45;;;3.70;90.30;;;;;;5013351;28;20469;-74
2021/03/18 02:53:23;;;;;;;9.80;4.00;;;3.70;90.20;;;;;;5027846;28;20025;-78
2021/03/18 02:55:53;;;;;;;12.50;4.57;;;3.60;90.00;;;;;;5019851;28;20037;-74
2021/03/18 02:58:22;;;;;;;8.00;3.80;;;3.60;90.10;;;;;;5030695;28;20057;-75
2021/03/18 03:00:50;;;;;;;9.77;3.90;;;3.60;90.10;;;;;;5011840;28;20501;-75
2021/03/18 03:03:18;;;;;;;12.10;4.37;;;3.50;89.70;;;;;;5024472;28;20029;-74
2021/03/18 03:05:50;;;;;;;9.83;3.77;;;3.50;89.90;;;;;;5012904;28;20029;-74
2021/03/18 03:08:17;;;;;;;12.43;4.35;;;3.40;89.80;;;;;;5030981;28;20029;-74
2021/03/18 03:10:45;;;;;;;9.03;3.70;;;3.40;89.90;;;;;;5013214;28;20087;-74
2021/03/18 03:13:12;;;;;;;8.20;3.60;;;3.40;90.00;;;;;;5011573;28;20034;-79
2021/03/18 03:15:39;;;;;;;15.27;4.60;;;3.40;90.00;;;;;;5031612;28;20069;-74
2021/03/18 03:18:08;;;;;;;10.40;4.07;;;3.40;90.10;;;;;;5030172;28;20030;-74
2021/03/18 03:20:34;;;;;;;9.53;3.63;;;3.30;89.80;;;;;;5013220;28;20041;-75
2021/03/18 03:23:03;;;;;;;9.87;3.97;;;3.30;89.70;;;;;;4996061;28;20034;-73
2021/03/18 03:25:29;;;;;;;8.90;3.83;;;3.30;89.80;;;;;;5029881;28;20060;-74
2021/03/18 03:27:55;;;;;;;11.83;4.13;;;3.30;90.10;;;;;;5031021;28;20030;-74
2021/03/18 03:30:23;;;;;;;8.70;4.20;;;3.40;90.10;;;;;;4997092;28;20022;-75
2021/03/18 03:32:50;;;;;;;10.43;3.80;;;3.40;90.10;;;;;;5029402;28;20028;-75
2021/03/18 03:35:16;;;;;;;6.73;3.50;;;3.50;90.10;;;;;;5012376;28;20485;-75
2021/03/18 03:37:44;;;;;;;9.40;4.10;;;3.60;90.00;;;;;;5016864;28;20033;-73
2021/03/18 03:40:12;;;;;;;8.77;4.07;;;3.50;89.80;;;;;;5031342;28;20040;-74
2021/03/18 03:42:39;;;;;;;10.67;3.77;;;3.50;89.90;;;;;;5032725;28;20022;-74
2021/03/18 03:45:08;;;;;;;16.60;3.97;;;3.60;90.10;;;;;;5034885;28;20037;-75
2021/03/18 03:47:35;;;;;;;7.10;3.33;;;3.70;90.10;;;;;;5033186;28;20048;-73
2021/03/18 03:50:03;;;;;;;7.77;3.63;;;3.70;90.10;;;;;;5035229;28;20056;-74
2021/03/18 03:52:40;;;;;;;8.57;3.40;;;3.60;90.00;;;;;;5033193;28;20036;-74
2021/03/18 03:55:09;;;;;;;9.63;3.43;;;3.60;90.00;;;;;;5016014;28;20040;-73
2021/03/18 03:57:50;;;;;;;8.43;3.30;;;3.50;89.90;;;;;;5015706;28;20105;-73
2021/03/18 04:00:16;;;;;;;10.73;3.73;;;3.50;89.90;;;;;;5032923;28;20026;-78
2021/03/18 04:02:45;;;;;;;14.17;3.77;;;3.50;89.90;;;;;;5034394;28;20025;-73
2021/03/18 04:05:13;;;;;;;11.73;3.27;;;3.40;89.90;;;;;;5033594;28;20552;-74
2021/03/18 04:07:40;;;;;;;11.23;3.60;;;3.40;90.00;;;;;;5033308;28;20567;-73
2021/03/18 04:10:07;;;;;;;6.90;3.07;;;3.40;90.10;;;;;;5032931;28;20030;-74
2021/03/18 04:12:36;;;;;;;13.60;3.40;;;3.40;90.00;;;;;;5032667;28;20044;-73
2021/03/18 04:15:08;;;;;;;7.33;3.17;;;3.30;90.00;;;;;;5034642;28;20025;-74
2021/03/18 04:17:36;;;;;;;10.00;3.97;;;3.30;90.10;;;;;;5030870;28;20493;-72
2021/03/18 04:20:05;;;;;;;11.20;3.37;;;3.30;90.10;;;;;;5016105;28;20038;-72
2021/03/18 04:22:32;;;;;;;9.03;3.20;;;3.30;90.10;;;;;;5014237;28;20057;-72
2021/03/18 04:25:00;;;;;;;11.70;3.37;;;3.20;90.00;;;;;;5016587;28;20029;-73
2021/03/18 04:27:29;;;;;;;13.00;3.43;;;3.30;90.10;;;;;;5014081;28;20025;-73
2021/03/18 04:29:58;;;;;;;9.83;3.40;;;3.20;90.00;;;;;;5033227;28;20022;-74
2021/03/18 04:32:25;;;;;;;12.97;3.47;;;3.20;90.10;;;;;;5014920;28;20026;-74
2021/03/18 04:34:52;;;;;;;10.30;3.63;;;3.30;90.00;;;;;;5016126;28;20033;-76
2021/03/18 04:37:18;;;;;;;6.70;3.10;;;3.30;90.10;;;;;;5031905;28;20033;-73
2021/03/18 04:39:45;;;;;;;11.30;3.30;;;3.40;90.00;;;;;;5015518;28;20033;-75
2021/03/18 04:42:12;;;;;;;10.57;3.37;;;3.40;89.70;;;;;;4999670;28;20025;-74
2021/03/18 04:44:40;;;;;;;9.60;3.17;;;3.40;90.00;;;;;;5015396;28;20484;-73
2021/03/18 04:47:05;;;;;;;13.10;3.50;;;3.40;90.10;;;;;;5032570;28;20040;-74
2021/03/18 04:49:32;;;;;;;8.13;3.00;;;3.40;90.10;;;;;;4996917;28;20428;-74
2021/03/18 04:51:57;;;;;;;14.70;4.33;;;3.50;89.90;;;;;;5013829;28;20481;-74
2021/03/18 04:54:23;;;;;;;12.90;3.80;;;3.50;90.00;;;;;;5032450;28;20044;-79
2021/03/18 04:56:50;;;;;;;12.43;3.10;;;3.50;89.60;;;;;;5014731;28;20577;-73
2021/03/18 04:59:17;;;;;;;10.30;3.80;;;3.50;89.30;;;;;;5033712;28;20061;-74
2021/03/18 05:01:47;;;;;;;7.30;3.10;;;3.40;89.50;;;;;;5031536;28;20028;-73
2021/03/18 05:04:15;;;;;;;6.60;3.70;;;3.40;89.50;;;;;;5018498;28;20034;-74
2021/03/18 05:06:41;;;;;;;10.20;4.13;;;3.40;89.70;;;;;;5013620;28;20037;-74
2021/03/18 05:09:10;;;;;;;6.43;3.67;;;3.40;89.60;;;;;;5014085;28;20029;-75
2021/03/18 05:11:37;;;;;;;5.67;3.17;;;3.40;89.30;;;;;;5030216;28;20029;-74
2021/03/18 05:14:05;;;;;;;12.40;4.20;;;3.40;89.50;;;;;;5032641;28;20083;-74
2021/03/18 05:16:31;;;;;;;11.70;4.40;;;3.40;89.30;;;;;;5032160;28;20117;-74
2021/03/18 05:18:56;;;;;;;10.03;3.93;;;3.40;89.20;;;;;;4982283;28;20120;-74
2021/03/18 05:21:22;;;;;;;10.30;4.53;;;3.40;89.50;;;;;;5013381;28;20077;-74
2021/03/18 05:23:48;;;;;;;13.10;3.93;;;3.40;89.40;;;;;;4998470;28;20045;-74
2021/03/18 05:26:14;;;;;;;10.27;3.40;;;3.40;89.20;;;;;;5014696;28;20030;-74
2021/03/18 05:28:39;;;;;;;10.80;3.33;;;3.40;89.10;;;;;;5014741;28;20120;-73
2021/03/18 05:31:05;;;;;;;9.87;3.73;;;3.40;89.20;;;;;;5032210;28;20362;-74
2021/03/18 05:33:30;;;;;;;11.43;3.73;;;3.40;89.30;;;;;;5029340;28;20495;-74
2021/03/18 05:35:56;;;;;;;11.47;3.80;;;3.40;89.30;;;;;;5014156;28;20061;-74
2021/03/18 05:38:22;;;;;;;8.80;4.27;;;3.50;89.30;;;;;;5013661;28;20389;-73
2021/03/18 05:40:54;;;;;;;8.43;3.77;;;3.50;89.20;;;;;;5014047;28;20029;-73
2021/03/18 05:43:21;;;;;;;14.50;4.40;;;3.50;89.20;;;;;;5031395;28;20512;-74
2021/03/18 05:45:47;;;;;;;14.77;4.20;;;3.50;89.00;;;;;;5013275;28;20041;-73
2021/03/18 05:48:13;;;;;;;11.27;4.37;;;3.40;88.60;;;;;;5013752;28;20032;-73
2021/03/18 05:50:41;;;;;;;10.23;4.23;;;3.40;88.40;;;;;;5014044;28;20033;-73
2021/03/18 05:53:07;;;;;;;10.90;4.07;;;3.30;88.40;;;;;;5012523;28;20029;-74
2021/03/18 05:55:35;;;;;;;10.17;4.80;;;3.40;89.00;;;;;;5012972;28;20034;-76
2021/03/18 05:58:02;;;;;;;12.37;4.57;;;3.50;89.10;;;;;;5013683;28;20037;-74
2021/03/18 06:00:30;;;;;;;12.37;5.90;;;3.60;89.00;;;;;;4998089;28;20021;-75
2021/03/18 06:02:56;;;;;;;18.00;4.90;;;3.60;88.90;;;;;;5030491;28;20052;-72
2021/03/18 06:05:22;;;;;;;10.63;4.47;;;3.70;88.60;;;;;;5014798;28;20039;-73
2021/03/18 06:07:49;;;;;;;13.33;5.30;;;3.70;88.30;;;;;;5010654;28;20460;-73
2021/03/18 06:10:23;;;;;;;9.10;4.40;;;3.70;88.20;;;;;;5014100;28;20118;-73
2021/03/18 06:12:55;;;;;;;10.73;6.10;;;3.70;88.00;;;;;;5030670;28;20080;-73
2021/03/18 06:15:23;;;;;;;11.53;4.93;;;3.70;88.10;;;;;;5030344;28;20522;-73
2021/03/18 06:17:49;;;;;;;9.33;5.13;;;3.70;88.00;;;;;;5029834;28;20021;-72
2021/03/18 06:20:23;;;;;;;12.17;4.73;;;3.80;88.00;;;;;;5014741;28;20477;-74
2021/03/18 06:22:50;;;;;;;9.30;4.50;;;3.80;87.70;;;;;;5026544;28;20033;-73
2021/03/18 06:25:32;;;;;;;9.70;4.57;;;3.70;87.60;;;;;;5014135;28;20025;-73
2021/03/18 06:28:21;;;;;;;13.60;4.17;;;3.80;88.00;;;;;;5012271;28;20021;-72
2021/03/18 06:31:12;;;;;;;13.53;4.77;;;3.90;88.20;;;;;;5013658;28;20037;-72
2021/03/18 06:33:51;;;;;;;10.80;4.27;;;4.00;88.30;;;;;;5030888;28;20044;-74
2021/03/18 06:36:27;;;;;;;8.50;4.00;;;4.00;87.90;;;;;;5030858;28;20542;-72
2021/03/18 06:39:03;;;;;;;7.03;4.10;;;4.00;87.90;;;;;;5012110;28;20038;-73
2021/03/18 06:41:30;;;;;;;10.30;3.97;;;4.10;87.80;;;;;;5012006;28;20026;-73
2021/03/18 06:43:56;;;;;;;12.30;3.63;;;4.10;88.00;;;;;;4993830;28;20536;-73
2021/03/18 06:46:23;;;;;;;9.13;3.20;;;4.20;87.80;;;;;;5011755;28;20033;-73
2021/03/18 06:48:50;;;;;;;9.50;3.73;;;4.30;87.60;;;;;;5012379;28;20120;-73
2021/03/18 06:51:21;;;;;;;9.00;4.00;;;4.30;87.20;;;;;;5013034;28;20537;-73
2021/03/18 06:53:48;;;;;;;8.83;3.40;;;4.30;87.30;;;;;;4994502;28;20479;-74
2021/03/18 06:56:29;;;;;;;14.23;4.27;;;4.40;87.40;;;;;;5013104;28;20084;-73
2021/03/18 06:58:55;;;;;;;9.77;3.97;;;4.50;87.50;;;;;;4999618;28;20036;-75
2021/03/18 07:01:30;;;;;;;11.80;4.10;;;4.70;87.40;;;;;;5027228;28;20034;-74
2021/03/18 07:04:14;;;;;;;9.10;3.77;;;4.80;87.20;;;;;;5026441;28;20053;-75
2021/03/18 07:06:40;;;;;;;14.40;4.70;;;4.80;86.60;;;;;;5002266;28;20029;-79
2021/03/18 07:09:10;;;;;;;9.17;4.13;;;4.90;86.20;;;;;;4988249;28;20945;-74
2021/03/18 07:11:44;;;;;;;13.47;4.00;;;4.90;85.80;;;;;;5018039;28;20029;-74
2021/03/18 07:14:11;;;;;;;12.37;4.13;;;4.90;85.60;;;;;;5001635;28;20049;-75
2021/03/18 07:16:41;;;;;;;11.90;3.73;;;5.10;85.90;;;;;;4988798;28;20037;-73
2021/03/18 07:19:08;;;;;;;15.10;4.33;;;5.10;85.60;;;;;;5025392;28;20030;-74
2021/03/18 07:21:40;;;;;;;11.37;4.13;;;5.20;85.40;;;;;;5007715;28;20116;-73
2021/03/18 07:24:33;;;;;;;10.25;4.43;;;5.30;85.00;;;;;;4999763;28;20033;-74
2021/03/18 07:27:19;;;;;;;11.23;5.15;;;5.40;85.00;;;;;;4998254;28;20048;-77
2021/03/18 07:29:48;;;;;;;17.37;5.30;;;5.70;85.10;;;;;;4998672;28;20164;-78
2021/03/18 07:32:15;;;;;;;18.30;7.03;;;5.90;84.40;;;;;;5017143;28;20060;-74
2021/03/18 07:34:42;;;;;;;14.00;7.20;;;6.00;83.90;;;;;;5001836;28;20061;-77
2021/03/18 07:37:09;;;;;;;14.83;6.80;;;6.30;83.50;;;;;;5016440;28;20099;-77
2021/03/18 07:39:40;;;;;;;17.10;6.93;;;6.50;82.20;;;;;;5001289;28;20034;-76
2021/03/18 07:42:07;;;;;;;14.97;7.10;;;6.80;81.00;;;;;;5015542;28;20620;-74
2021/03/18 07:44:35;;;;;;;18.93;7.83;;;6.90;79.40;;;;;;4983771;28;20064;-77
2021/03/18 07:47:02;;;;;;;17.83;9.90;;;7.00;78.80;;;;;;5005360;28;20041;-75
2021/03/18 07:49:40;;;;;;;16.27;8.40;;;7.10;79.10;;;;;;5007392;28;20018;-73
2021/03/18 07:52:12;;;;;;;15.57;8.23;;;7.10;78.40;;;;;;5021107;28;20030;-74
2021/03/18 07:54:38;;;;;;;18.10;8.07;;;7.10;77.80;;;;;;5001182;28;20036;-78
2021/03/18 07:57:13;;;;;;;21.10;8.63;;;7.10;77.90;;;;;;4982617;28;20037;-74
2021/03/18 07:59:39;;;;;;;14.07;7.20;;;7.00;77.70;;;;;;5017648;28;20456;-76
2021/03/18 08:02:17;;;;;;;16.93;8.70;;;7.00;77.90;;;;;;4999279;28;20048;-74
2021/03/18 08:04:46;;;;;;;17.30;7.60;;;6.90;77.90;;;;;;5017965;28;20044;-77
2021/03/18 08:07:36;;;;;;;18.80;9.53;;;7.00;77.50;;;;;;5003501;28;20202;-75
2021/03/18 08:10:05;;;;;;;20.60;9.63;;;6.90;77.90;;;;;;4997438;28;20095;-75
2021/03/18 08:12:53;;;;;;;20.33;9.93;;;7.00;77.90;;;;;;5001449;28;20034;-74
2021/03/18 08:15:19;;;;;;;21.83;12.53;;;7.10;77.80;;;;;;5003928;28;20059;-74
2021/03/18 08:17:45;;;;;;;17.47;8.87;;;7.10;77.90;;;;;;5022693;28;20469;-74
2021/03/18 08:20:11;;;;;;;19.23;8.60;;;7.20;77.40;;;;;;5011090;28;20044;-74
2021/03/18 08:22:37;;;;;;;20.47;10.20;;;7.20;77.00;;;;;;5010201;28;20062;-74
2021/03/18 08:25:24;;;;;;;18.90;8.00;;;7.20;77.30;;;;;;5015372;28;20474;-74
2021/03/18 08:27:50;;;;;;;24.53;13.50;;;7.30;76.70;;;;;;4996347;28;20038;-74
2021/03/18 08:30:25;;;;;;;22.97;11.50;;;7.40;77.60;;;;;;5005966;28;20041;-75
2021/03/18 08:32:51;;;;;;;18.07;8.80;;;7.70;77.40;;;;;;5015678;28;20118;-78
2021/03/18 08:35:28;;;;;;;23.57;12.30;;;7.70;76.50;;;;;;4999822;28;20146;-74
2021/03/18 08:38:12;;;;;;;25.87;15.57;;;7.70;76.60;;;;;;5030717;28;20030;-78
2021/03/18 08:40:38;;;;;;;22.77;11.57;;;7.80;77.20;;;;;;5009684;28;20024;-73
2021/03/18 08:43:07;;;;;;;31.80;11.57;;;7.80;77.00;;;;;;4998324;28;20026;-74
2021/03/18 08:45:34;;;;;;;31.83;13.07;;;7.70;76.80;;;;;;5034031;28;20064;-75
2021/03/18 08:48:17;;;;;;;32.53;12.43;;;7.80;77.60;;;;;;5015512;28;20057;-74
2021/03/18 08:50:42;;;;;;;29.13;12.32;;;7.80;77.30;;;;;;5010588;28;20028;-74
2021/03/18 08:53:26;;;;;;;31.83;12.20;;;7.70;77.10;;;;;;5022309;28;20026;-75
2021/03/18 08:55:52;;;;;;;28.73;9.87;;;7.80;77.20;;;;;;5020639;28;20087;-77
2021/03/18 08:58:17;;;;;;;47.53;13.67;;;7.80;76.70;;;;;;5008063;28;20824;-74
2021/03/18 09:00:47;;;;;;;31.87;10.87;;;7.80;76.80;;;;;;5015488;28;20432;-74
2021/03/18 09:03:20;;;;;;;30.30;11.70;;;7.90;77.30;;;;;;5030086;28;20095;-74
2021/03/18 09:05:57;;;;;;;29.80;12.27;;;7.90;77.30;;;;;;5033002;28;20029;-75
2021/03/18 09:08:30;;;;;;;19.03;6.93;;;8.00;77.40;;;;;;5012402;28;20064;-76
2021/03/18 09:10:56;;;;;;;23.00;9.63;;;8.10;76.00;;;;;;5015195;28;20060;-78
2021/03/18 09:13:24;;;;;;;18.53;9.73;;;8.00;76.30;;;;;;5028887;28;20033;-75
2021/03/18 09:15:57;;;;;;;19.97;10.83;;;8.10;76.30;;;;;;5015548;28;20048;-75
2021/03/18 09:18:31;;;;;;;20.17;9.30;;;8.10;76.60;;;;;;5013881;28;20121;-75
2021/03/18 09:20:57;;;;;;;19.10;9.00;;;8.30;76.60;;;;;;4998345;28;20054;-79
2021/03/18 09:23:34;;;;;;;24.23;11.07;;;8.40;76.50;;;;;;5014715;28;20453;-75
2021/03/18 09:26:04;;;;;;;24.27;9.20;;;8.30;75.20;;;;;;5032827;28;20033;-79
2021/03/18 09:28:38;;;;;;;22.40;9.97;;;8.30;75.60;;;;;;5014557;28;20033;-75
2021/03/18 09:31:05;;;;;;;16.73;8.23;;;8.40;75.30;;;;;;5032213;28;20095;-75
2021/03/18 09:33:32;;;;;;;15.80;6.87;;;8.50;75.60;;;;;;5013684;28;20029;-76
2021/03/18 09:36:20;;;;;;;14.00;5.63;;;8.50;74.90;;;;;;5015306;28;20034;-76
2021/03/18 09:39:02;;;;;;;14.03;7.90;;;8.50;74.40;;;;;;5007928;28;20525;-76
2021/03/18 09:41:35;;;;;;;18.60;9.07;;;8.50;74.60;;;;;;5032845;28;20398;-76
2021/03/18 09:44:09;;;;;;;15.85;6.88;;;8.60;74.90;;;;;;5014377;28;20280;-79
2021/03/18 09:46:36;;;;;;;16.67;9.80;;;8.70;74.70;;;;;;5031887;28;20022;-76
2021/03/18 09:49:03;;;;;;;19.47;9.23;;;8.70;74.30;;;;;;4994422;28;20442;-79
2021/03/18 09:51:29;;;;;;;14.13;6.33;;;8.80;74.60;;;;;;5012312;28;20466;-75
2021/03/18 09:54:05;;;;;;;17.60;7.40;;;8.80;73.90;;;;;;5015478;28;20079;-75
2021/03/18 09:56:42;;;;;;;16.90;7.37;;;8.80;73.80;;;;;;5031091;28;20051;-78
2021/03/18 09:59:10;;;;;;;17.77;8.47;;;8.80;73.80;;;;;;5014294;28;20531;-75
2021/03/18 10:01:37;;;;;;;12.93;7.33;;;8.80;73.90;;;;;;5031661;28;20029;-77
2021/03/18 10:04:14;;;;;;;19.70;7.97;;;8.90;73.60;;;;;;5032782;28;20469;-79
2021/03/18 10:06:48;;;;;;;18.87;6.93;;;9.00;74.10;;;;;;5013638;28;20044;-75
2021/03/18 10:09:28;;;;;;;9.53;4.37;;;9.20;73.50;;;;;;5013589;28;20030;-74
2021/03/18 10:11:54;;;;;;;11.23;5.37;;;9.30;72.80;;;;;;5013838;28;20386;-75
2021/03/18 10:14:26;;;;;;;11.83;5.03;;;9.50;72.30;;;;;;5013993;28;20029;-75
2021/03/18 10:16:53;;;;;;;10.93;4.75;;;9.60;72.20;;;;;;5012719;28;20378;-74
2021/03/18 10:19:24;;;;;;;10.27;4.73;;;9.70;72.30;;;;;;4993574;28;20072;-75
2021/03/18 10:21:50;;;;;;;11.67;4.10;;;9.70;72.30;;;;;;5014449;28;20176;-75
2021/03/18 10:24:16;;;;;;;8.80;3.77;;;9.90;71.50;;;;;;5014026;28;20423;-75
2021/03/18 10:26:43;;;;;;;10.10;4.93;;;10.00;71.30;;;;;;5030874;28;20041;-75
2021/03/18 10:29:12;;;;;;;10.93;5.17;;;10.10;71.10;;;;;;4997594;28;20048;-79
2021/03/18 10:31:40;;;;;;;9.90;5.03;;;10.20;70.40;;;;;;5031256;28;20412;-74
2021/03/18 10:34:19;;;;;;;10.73;4.37;;;10.50;69.60;;;;;;5014253;28;20030;-75
2021/03/18 10:36:44;;;;;;;12.23;4.50;;;10.60;69.60;;;;;;5013742;28;20068;-74
2021/03/18 10:39:12;;;;;;;11.27;4.23;;;10.70;68.70;;;;;;5031530;28;20069;-78
2021/03/18 10:41:59;;;;;;;12.13;3.80;;;10.80;68.90;;;;;;4996934;28;20025;-74
2021/03/18 10:44:45;;;;;;;7.47;2.80;;;10.70;70.00;;;;;;5011831;28;20030;-75
2021/03/18 10:47:19;;;;;;;7.70;2.70;;;10.70;68.80;;;;;;4998943;28;20428;-78
2021/03/18 10:50:02;;;;;;;6.43;2.60;;;10.70;68.50;;;;;;5013766;28;20108;-75
2021/03/18 10:52:28;;;;;;;10.33;3.37;;;10.60;67.80;;;;;;5020209;28;20470;-74
2021/03/18 10:54:55;;;;;;;7.77;2.77;;;10.50;67.80;;;;;;4997349;28;20037;-75
2021/03/18 10:57:21;;;;;;;9.00;2.43;;;10.50;67.90;;;;;;5012440;28;20146;-74
2021/03/18 10:59:58;;;;;;;8.63;3.03;;;10.60;67.20;;;;;;5014224;28;20031;-75
2021/03/18 11:02:28;;;;;;;9.63;3.10;;;10.50;67.30;;;;;;5012705;28;20030;-75
2021/03/18 11:04:59;;;;;;;8.93;3.33;;;10.50;68.00;;;;;;5013658;28;20036;-75
2021/03/18 11:07:26;;;;;;;13.20;3.40;;;10.50;67.80;;;;;;5029839;28;20036;-75
2021/03/18 11:10:28;;;;;;;8.27;2.53;;;10.50;68.30;;;;;;5013195;28;20060;-75
2021/03/18 11:13:00;;;;;;;8.77;3.10;;;10.50;67.30;;;;;;4970122;28;20549;-76
2021/03/18 11:15:26;;;;;;;7.70;3.73;;;10.60;68.10;;;;;;5020847;28;20052;-74
2021/03/18 11:18:07;;;;;;;9.93;3.73;;;10.80;68.20;;;;;;4993132;28;20052;-74
2021/03/18 11:20:35;;;;;;;7.77;2.93;;;11.10;68.00;;;;;;4993365;28;20041;-74
2021/03/18 11:23:02;;;;;;;7.70;4.10;;;11.20;67.70;;;;;;5023565;28;20033;-74
2021/03/18 11:25:28;;;;;;;9.43;2.57;;;11.30;67.60;;;;;;5029592;28;20033;-75
2021/03/18 11:27:54;;;;;;;8.37;2.93;;;11.50;66.70;;;;;;4997601;28;20033;-76
2021/03/18 11:30:46;;;;;;;8.70;4.10;;;11.50;66.00;;;;;;5012600;28;20037;-75
2021/03/18 11:33:22;;;;;;;7.90;3.17;;;11.40;67.30;;;;;;5010410;28;20033;-75
2021/03/18 11:35:51;;;;;;;9.87;3.83;;;11.40;66.60;;;;;;5031321;28;20027;-75
2021/03/18 11:38:18;;;;;;;9.40;2.77;;;11.20;67.40;;;;;;5029886;28;20037;-78
2021/03/18 11:40:46;;;;;;;8.23;3.10;;;11.20;68.30;;;;;;4993498;28;20064;-74
2021/03/18 11:43:13;;;;;;;8.90;2.63;;;11.10;67.30;;;;;;5013137;28;20044;-74
2021/03/18 11:45:39;;;;;;;10.27;3.13;;;10.90;68.00;;;;;;5011646;28;20666;-75
2021/03/18 11:48:06;;;;;;;9.97;4.07;;;10.80;68.50;;;;;;4995863;28;20030;-74
2021/03/18 11:50:34;;;;;;;9.40;3.63;;;10.90;69.50;;;;;;5008986;28;20393;-75
2021/03/18 11:53:00;;;;;;;7.27;2.83;;;10.90;68.80;;;;;;5024818;28;20034;-77
2021/03/18 11:55:26;;;;;;;7.03;2.73;;;11.00;69.10;;;;;;5005109;28;20033;-75
2021/03/18 11:57:58;;;;;;;8.37;2.77;;;11.10;68.90;;;;;;5022251;28;20091;-75
2021/03/18 12:00:26;;;;;;;7.13;2.60;;;11.30;68.00;;;;;;5030029;28;20021;-74
2021/03/18 12:02:54;;;;;;;9.97;2.57;;;11.30;67.80;;;;;;5016474;28;20029;-74
2021/03/18 12:05:20;;;;;;;9.07;2.60;;;11.30;67.80;;;;;;5021145;28;20129;-81
2021/03/18 12:07:46;;;;;;;9.17;3.13;;;11.40;67.50;;;;;;4997085;28;20030;-75
2021/03/18 12:10:13;;;;;;;7.30;2.27;;;11.60;67.50;;;;;;4991506;28;20120;-76
2021/03/18 12:12:39;;;;;;;6.90;2.03;;;11.70;66.60;;;;;;5016652;28;20060;-76
2021/03/18 12:15:07;;;;;;;6.00;2.00;;;11.70;65.50;;;;;;5016448;28;20036;-76
2021/03/18 12:17:33;;;;;;;6.83;2.13;;;11.80;65.30;;;;;;5016374;28;20025;-76
2021/03/18 12:19:59;;;;;;;12.93;5.10;;;11.70;65.40;;;;;;5031666;28;20098;-75
2021/03/18 12:22:25;;;;;;;10.90;2.77;;;11.70;65.60;;;;;;5011931;28;20058;-76
2021/03/18 12:24:50;;;;;;;10.83;2.70;;;11.70;65.70;;;;;;5015223;28;20030;-76
2021/03/18 12:27:16;;;;;;;9.13;2.50;;;11.70;66.20;;;;;;5012797;28;20040;-75
2021/03/18 12:29:42;;;;;;;8.90;2.53;;;11.70;66.10;;;;;;4995029;28;20029;-76
2021/03/18 12:32:07;;;;;;;8.33;3.00;;;11.70;65.40;;;;;;5013619;28;20152;-76
2021/03/18 12:34:33;;;;;;;10.33;2.60;;;11.70;66.40;;;;;;5009186;28;20038;-76
2021/03/18 12:36:59;;;;;;;6.37;2.20;;;11.90;66.00;;;;;;4981931;28;20095;-75
2021/03/18 12:39:24;;;;;;;10.23;2.57;;;11.90;66.40;;;;;;4989873;28;20061;-79
2021/03/18 12:41:50;;;;;;;7.67;2.73;;;11.90;65.50;;;;;;5007340;28;20037;-75
2021/03/18 12:44:16;;;;;;;10.73;2.10;;;11.90;65.60;;;;;;4994833;28;20375;-75
2021/03/18 12:46:42;;;;;;;8.33;2.30;;;11.90;64.70;;;;;;5007505;28;20038;-75
2021/03/18 12:49:08;;;;;;;9.30;2.30;;;11.90;65.00;;;;;;5012685;28;20036;-75
2021/03/18 12:51:36;;;;;;;8.97;2.37;;;11.80;64.30;;;;;;5006187;28;20042;-75
2021/03/18 12:54:01;;;;;;;10.57;2.53;;;11.80;64.50;;;;;;5010705;28;20406;-75
2021/03/18 12:56:27;;;;;;;12.63;3.37;;;11.80;65.30;;;;;;4994923;28;20069;-79
2021/03/18 12:58:53;;;;;;;8.57;2.30;;;11.80;65.90;;;;;;5013879;28;20136;-76
2021/03/18 13:01:19;;;;;;;9.33;2.70;;;11.70;65.50;;;;;;5014288;28;20034;-74